sensor_id;sensor_type;location;lat;lon;timestamp;P1;durP1;ratioP1;P2;durP2;ratioP2
19727;SDS011;10015;52.530;13.390;2022-07-23T00:00:55;7.72;;;4.82;;
19727;SDS011;10015;52.530;13.390;2022-07-23T05:32:32;4.37;;;2.63;;
19727;SDS011;10015;52.530;13.390;2022-07-23T05:35:07;7.00;;;2.70;;
19727;SDS011;10015;52.530;13.390;2022-07-23T05:37:37;6.00;;;2.70;;
19727;SDS011;10015;52.530;13.390;2022-07-23T05:40:04;4.33;;;2.10;;
19727;SDS011;10015;52.530;13.390;2022-07-23T05:42:33;2.87;;;2.40;;
19727;SDS011;10015;52.530;13.390;2022-07-23T05:45:03;4.47;;;2.37;;
19727;SDS011;10015;52.530;13.390;2022-07-23T05:47:44;6.10;;;2.43;;
19727;SDS011;10015;52.530;13.390;2022-07-23T05:50:22;3.73;;;2.40;;
19727;SDS011;10015;52.530;13.390;2022-07-23T05:52:53;4.57;;;2.10;;
19727;SDS011;10015;52.530;13.390;2022-07-23T05:55:25;4.27;;;2.33;;
19727;SDS011;10015;52.530;13.390;2022-07-23T05:57:57;5.37;;;2.30;;
19727;SDS011;10015;52.530;13.390;2022-07-23T06:00:24;4.53;;;2.40;;
19727;SDS011;10015;52.530;13.390;2022-07-23T06:02:51;6.07;;;2.47;;
19727;SDS011;10015;52.530;13.390;2022-07-23T06:05:17;5.57;;;2.67;;
19727;SDS011;10015;52.530;13.390;2022-07-23T06:07:44;9.30;;;2.70;;
19727;SDS011;10015;52.530;13.390;2022-07-23T06:10:12;4.03;;;2.23;;
19727;SDS011;10015;52.530;13.390;2022-07-23T06:12:38;4.53;;;2.13;;
19727;SDS011;10015;52.530;13.390;2022-07-23T06:15:04;6.53;;;2.50;;
19727;SDS011;10015;52.530;13.390;2022-07-23T06:17:31;4.67;;;2.40;;
19727;SDS011;10015;52.530;13.390;2022-07-23T06:19:57;7.77;;;2.80;;
19727;SDS011;10015;52.530;13.390;2022-07-23T06:22:23;4.90;;;2.63;;
19727;SDS011;10015;52.530;13.390;2022-07-23T06:24:53;5.67;;;2.50;;
19727;SDS011;10015;52.530;13.390;2022-07-23T06:27:20;3.90;;;2.60;;
19727;SDS011;10015;52.530;13.390;2022-07-23T06:29:46;6.33;;;2.93;;
19727;SDS011;10015;52.530;13.390;2022-07-23T06:32:12;5.90;;;3.07;;
19727;SDS011;10015;52.530;13.390;2022-07-23T06:34:38;7.33;;;2.60;;
19727;SDS011;10015;52.530;13.390;2022-07-23T06:37:04;7.90;;;3.37;;
19727;SDS011;10015;52.530;13.390;2022-07-23T06:39:30;4.03;;;2.73;;
19727;SDS011;10015;52.530;13.390;2022-07-23T06:41:58;4.93;;;3.00;;
19727;SDS011;10015;52.530;13.390;2022-07-23T06:44:35;7.83;;;3.27;;
19727;SDS011;10015;52.530;13.390;2022-07-23T06:47:01;5.83;;;3.37;;
19727;SDS011;10015;52.530;13.390;2022-07-23T06:49:27;6.00;;;3.20;;
19727;SDS011;10015;52.530;13.390;2022-07-23T06:51:56;7.33;;;2.70;;
19727;SDS011;10015;52.530;13.390;2022-07-23T06:54:22;6.10;;;3.27;;
19727;SDS011;10015;52.530;13.390;2022-07-23T06:56:49;6.87;;;3.60;;
19727;SDS011;10015;52.530;13.390;2022-07-23T06:59:15;6.37;;;3.17;;
19727;SDS011;10015;52.530;13.390;2022-07-23T07:01:42;5.77;;;2.93;;
19727;SDS011;10015;52.530;13.390;2022-07-23T07:04:08;4.73;;;3.27;;
19727;SDS011;10015;52.530;13.390;2022-07-23T07:06:34;5.50;;;3.63;;
19727;SDS011;10015;52.530;13.390;2022-07-23T07:09:00;6.03;;;3.40;;
19727;SDS011;10015;52.530;13.390;2022-07-23T07:11:26;5.07;;;2.80;;
19727;SDS011;10015;52.530;13.390;2022-07-23T07:13:52;4.93;;;3.17;;
19727;SDS011;10015;52.530;13.390;2022-07-23T07:16:18;6.17;;;2.83;;
19727;SDS011;10015;52.530;13.390;2022-07-23T07:18:44;5.10;;;2.93;;
19727;SDS011;10015;52.530;13.390;2022-07-23T07:21:10;5.77;;;3.10;;
19727;SDS011;10015;52.530;13.390;2022-07-23T07:23:36;4.90;;;3.00;;
19727;SDS011;10015;52.530;13.390;2022-07-23T07:26:02;6.20;;;3.03;;
19727;SDS011;10015;52.530;13.390;2022-07-23T07:28:28;7.40;;;3.43;;
19727;SDS011;10015;52.530;13.390;2022-07-23T07:30:54;5.93;;;2.87;;
19727;SDS011;10015;52.530;13.390;2022-07-23T07:33:20;5.27;;;2.83;;
19727;SDS011;10015;52.530;13.390;2022-07-23T07:35:46;8.87;;;3.17;;
19727;SDS011;10015;52.530;13.390;2022-07-23T07:38:12;11.53;;;3.50;;
19727;SDS011;10015;52.530;13.390;2022-07-23T07:40:38;7.70;;;3.20;;
19727;SDS011;10015;52.530;13.390;2022-07-23T07:43:04;6.37;;;3.50;;
19727;SDS011;10015;52.530;13.390;2022-07-23T07:45:30;8.03;;;3.47;;
19727;SDS011;10015;52.530;13.390;2022-07-23T07:47:56;5.17;;;3.03;;
19727;SDS011;10015;52.530;13.390;2022-07-23T07:50:22;11.40;;;4.30;;
19727;SDS011;10015;52.530;13.390;2022-07-23T07:52:48;9.37;;;3.70;;
19727;SDS011;10015;52.530;13.390;2022-07-23T07:55:14;4.50;;;2.70;;
19727;SDS011;10015;52.530;13.390;2022-07-23T07:57:40;7.27;;;3.77;;
19727;SDS011;10015;52.530;13.390;2022-07-23T08:00:07;6.80;;;3.40;;
19727;SDS011;10015;52.530;13.390;2022-07-23T08:02:45;5.80;;;3.17;;
19727;SDS011;10015;52.530;13.390;2022-07-23T08:05:20;4.90;;;3.37;;
19727;SDS011;10015;52.530;13.390;2022-07-23T08:07:50;7.33;;;3.67;;
19727;SDS011;10015;52.530;13.390;2022-07-23T08:10:16;8.13;;;3.60;;
19727;SDS011;10015;52.530;13.390;2022-07-23T08:12:44;6.80;;;3.80;;
19727;SDS011;10015;52.530;13.390;2022-07-23T08:15:13;4.70;;;3.30;;
19727;SDS011;10015;52.530;13.390;2022-07-23T08:17:41;4.43;;;3.03;;
19727;SDS011;10015;52.530;13.390;2022-07-23T08:20:08;5.10;;;3.00;;
19727;SDS011;10015;52.530;13.390;2022-07-23T08:25:25;3.58;;;2.80;;
19727;SDS011;10015;52.530;13.390;2022-07-23T08:27:53;4.70;;;2.40;;
19727;SDS011;10015;52.530;13.390;2022-07-23T08:30:20;4.53;;;2.63;;
19727;SDS011;10015;52.530;13.390;2022-07-23T08:35:23;4.07;;;2.30;;
19727;SDS011;10015;52.530;13.390;2022-07-23T08:37:56;5.70;;;2.40;;
19727;SDS011;10015;52.530;13.390;2022-07-23T08:40:23;5.78;;;2.45;;
19727;SDS011;10015;52.530;13.390;2022-07-23T08:42:51;5.72;;;1.90;;
19727;SDS011;10015;52.530;13.390;2022-07-23T08:45:18;5.88;;;2.10;;
19727;SDS011;10015;52.530;13.390;2022-07-23T08:47:55;4.97;;;2.00;;
19727;SDS011;10015;52.530;13.390;2022-07-23T08:50:25;4.82;;;2.03;;
19727;SDS011;10015;52.530;13.390;2022-07-23T08:52:52;5.68;;;2.28;;
19727;SDS011;10015;52.530;13.390;2022-07-23T08:55:20;6.03;;;2.08;;
19727;SDS011;10015;52.530;13.390;2022-07-23T08:57:47;7.45;;;2.25;;
19727;SDS011;10015;52.530;13.390;2022-07-23T09:00:15;4.78;;;1.98;;
19727;SDS011;10015;52.530;13.390;2022-07-23T09:02:42;5.75;;;2.20;;
19727;SDS011;10015;52.530;13.390;2022-07-23T09:05:09;3.47;;;2.03;;
19727;SDS011;10015;52.530;13.390;2022-07-23T09:07:37;6.32;;;2.22;;
19727;SDS011;10015;52.530;13.390;2022-07-23T09:10:23;3.92;;;1.95;;
19727;SDS011;10015;52.530;13.390;2022-07-23T09:12:49;5.47;;;2.40;;
19727;SDS011;10015;52.530;13.390;2022-07-23T09:15:14;3.05;;;2.42;;
19727;SDS011;10015;52.530;13.390;2022-07-23T09:17:41;10.57;;;3.50;;
19727;SDS011;10015;52.530;13.390;2022-07-23T09:20:12;5.82;;;2.60;;
19727;SDS011;10015;52.530;13.390;2022-07-23T09:22:44;6.53;;;2.50;;
19727;SDS011;10015;52.530;13.390;2022-07-23T09:25:16;6.55;;;2.70;;
19727;SDS011;10015;52.530;13.390;2022-07-23T09:30:19;4.90;;;2.70;;
19727;SDS011;10015;52.530;13.390;2022-07-23T09:33:09;3.90;;;2.53;;
19727;SDS011;10015;52.530;13.390;2022-07-23T09:38:22;7.30;;;2.80;;
19727;SDS011;10015;52.530;13.390;2022-07-23T09:41:11;5.35;;;2.80;;
19727;SDS011;10015;52.530;13.390;2022-07-23T09:43:38;5.03;;;2.72;;
19727;SDS011;10015;52.530;13.390;2022-07-23T09:48:56;5.32;;;2.80;;
19727;SDS011;10015;52.530;13.390;2022-07-23T09:51:22;6.90;;;2.80;;
19727;SDS011;10015;52.530;13.390;2022-07-23T09:53:51;6.32;;;3.00;;
19727;SDS011;10015;52.530;13.390;2022-07-23T09:56:18;5.28;;;2.92;;
19727;SDS011;10015;52.530;13.390;2022-07-23T09:58:46;6.72;;;3.17;;
19727;SDS011;10015;52.530;13.390;2022-07-23T10:01:28;4.60;;;2.67;;
19727;SDS011;10015;52.530;13.390;2022-07-23T10:03:54;3.83;;;2.72;;
19727;SDS011;10015;52.530;13.390;2022-07-23T10:06:40;5.65;;;2.83;;
19727;SDS011;10015;52.530;13.390;2022-07-23T10:09:37;6.35;;;2.70;;
19727;SDS011;10015;52.530;13.390;2022-07-23T10:12:28;4.60;;;2.50;;
19727;SDS011;10015;52.530;13.390;2022-07-23T10:15:06;7.22;;;3.03;;
19727;SDS011;10015;52.530;13.390;2022-07-23T10:17:33;5.95;;;2.50;;
19727;SDS011;10015;52.530;13.390;2022-07-23T10:20:00;4.68;;;2.47;;
19727;SDS011;10015;52.530;13.390;2022-07-23T10:22:30;4.00;;;2.40;;
19727;SDS011;10015;52.530;13.390;2022-07-23T10:25:08;5.55;;;2.30;;
19727;SDS011;10015;52.530;13.390;2022-07-23T10:33:49;2.33;;;1.73;;
19727;SDS011;10015;52.530;13.390;2022-07-23T10:40:08;4.25;;;2.35;;
19727;SDS011;10015;52.530;13.390;2022-07-23T10:42:34;6.07;;;2.85;;
19727;SDS011;10015;52.530;13.390;2022-07-23T10:45:02;5.03;;;2.50;;
19727;SDS011;10015;52.530;13.390;2022-07-23T10:47:52;5.10;;;2.50;;
19727;SDS011;10015;52.530;13.390;2022-07-23T10:50:20;7.22;;;2.30;;
19727;SDS011;10015;52.530;13.390;2022-07-23T10:57:59;5.38;;;2.60;;
19727;SDS011;10015;52.530;13.390;2022-07-23T11:00:29;4.70;;;2.20;;
19727;SDS011;10015;52.530;13.390;2022-07-23T11:03:00;5.10;;;2.60;;
19727;SDS011;10015;52.530;13.390;2022-07-23T11:05:41;11.38;;;2.67;;
19727;SDS011;10015;52.530;13.390;2022-07-23T11:08:14;7.78;;;2.70;;
19727;SDS011;10015;52.530;13.390;2022-07-23T11:16:13;6.43;;;2.45;;
19727;SDS011;10015;52.530;13.390;2022-07-23T11:32:00;5.22;;;2.88;;
19727;SDS011;10015;52.530;13.390;2022-07-23T11:34:32;5.13;;;2.55;;
19727;SDS011;10015;52.530;13.390;2022-07-23T11:37:00;3.45;;;2.63;;
19727;SDS011;10015;52.530;13.390;2022-07-23T11:39:27;3.95;;;2.28;;
19727;SDS011;10015;52.530;13.390;2022-07-23T11:41:55;4.63;;;2.40;;
19727;SDS011;10015;52.530;13.390;2022-07-23T11:44:32;4.72;;;2.35;;
19727;SDS011;10015;52.530;13.390;2022-07-23T11:47:00;4.88;;;2.63;;
19727;SDS011;10015;52.530;13.390;2022-07-23T11:49:28;5.32;;;2.85;;
19727;SDS011;10015;52.530;13.390;2022-07-23T11:52:09;4.80;;;2.30;;
19727;SDS011;10015;52.530;13.390;2022-07-23T11:54:46;4.70;;;2.85;;
19727;SDS011;10015;52.530;13.390;2022-07-23T11:57:14;4.88;;;2.85;;
19727;SDS011;10015;52.530;13.390;2022-07-23T11:59:40;6.35;;;2.80;;
19727;SDS011;10015;52.530;13.390;2022-07-23T12:02:08;4.13;;;2.85;;
19727;SDS011;10015;52.530;13.390;2022-07-23T12:07:26;7.60;;;3.15;;
19727;SDS011;10015;52.530;13.390;2022-07-23T12:09:53;3.70;;;2.55;;
19727;SDS011;10015;52.530;13.390;2022-07-23T12:12:19;3.45;;;2.55;;
19727;SDS011;10015;52.530;13.390;2022-07-23T12:14:56;5.82;;;2.60;;
19727;SDS011;10015;52.530;13.390;2022-07-23T12:17:31;7.15;;;3.10;;
19727;SDS011;10015;52.530;13.390;2022-07-23T12:19:59;5.00;;;2.85;;
19727;SDS011;10015;52.530;13.390;2022-07-23T12:22:26;4.65;;;2.60;;
19727;SDS011;10015;52.530;13.390;2022-07-23T12:27:40;4.40;;;2.92;;
19727;SDS011;10015;52.530;13.390;2022-07-23T12:30:20;6.00;;;2.90;;
19727;SDS011;10015;52.530;13.390;2022-07-23T12:32:53;4.45;;;2.97;;
19727;SDS011;10015;52.530;13.390;2022-07-23T12:35:30;5.82;;;3.00;;
19727;SDS011;10015;52.530;13.390;2022-07-23T12:38:18;10.05;;;3.60;;
19727;SDS011;10015;52.530;13.390;2022-07-23T12:40:51;6.15;;;3.17;;
19727;SDS011;10015;52.530;13.390;2022-07-23T12:43:24;5.68;;;3.20;;
19727;SDS011;10015;52.530;13.390;2022-07-23T12:46:09;5.13;;;3.40;;
19727;SDS011;10015;52.530;13.390;2022-07-23T12:51:24;6.13;;;3.55;;
19727;SDS011;10015;52.530;13.390;2022-07-23T12:54:06;4.10;;;3.22;;
19727;SDS011;10015;52.530;13.390;2022-07-23T12:56:38;5.57;;;3.58;;
19727;SDS011;10015;52.530;13.390;2022-07-23T12:59:09;5.03;;;2.80;;
19727;SDS011;10015;52.530;13.390;2022-07-23T13:01:39;3.83;;;2.75;;
19727;SDS011;10015;52.530;13.390;2022-07-23T13:04:15;4.78;;;3.38;;
19727;SDS011;10015;52.530;13.390;2022-07-23T13:06:50;7.43;;;3.78;;
19727;SDS011;10015;52.530;13.390;2022-07-23T13:09:22;3.50;;;2.83;;
19727;SDS011;10015;52.530;13.390;2022-07-23T13:11:50;6.70;;;3.03;;
19727;SDS011;10015;52.530;13.390;2022-07-23T13:14:17;5.47;;;3.08;;
19727;SDS011;10015;52.530;13.390;2022-07-23T13:16:44;3.55;;;2.80;;
19727;SDS011;10015;52.530;13.390;2022-07-23T13:19:11;5.63;;;3.05;;
19727;SDS011;10015;52.530;13.390;2022-07-23T13:21:37;4.82;;;3.20;;
19727;SDS011;10015;52.530;13.390;2022-07-23T13:24:04;5.35;;;3.30;;
19727;SDS011;10015;52.530;13.390;2022-07-23T13:26:30;5.93;;;3.45;;
19727;SDS011;10015;52.530;13.390;2022-07-23T13:28:56;4.93;;;3.20;;
19727;SDS011;10015;52.530;13.390;2022-07-23T13:31:23;4.70;;;2.97;;
19727;SDS011;10015;52.530;13.390;2022-07-23T13:33:49;4.68;;;3.00;;
19727;SDS011;10015;52.530;13.390;2022-07-23T13:36:15;4.38;;;3.00;;
19727;SDS011;10015;52.530;13.390;2022-07-23T13:38:41;5.10;;;3.20;;
19727;SDS011;10015;52.530;13.390;2022-07-23T13:41:07;4.50;;;3.08;;
19727;SDS011;10015;52.530;13.390;2022-07-23T13:43:33;6.50;;;3.05;;
19727;SDS011;10015;52.530;13.390;2022-07-23T13:46:00;5.40;;;2.97;;
19727;SDS011;10015;52.530;13.390;2022-07-23T13:48:25;3.03;;;2.70;;
19727;SDS011;10015;52.530;13.390;2022-07-23T13:50:51;4.68;;;2.65;;
19727;SDS011;10015;52.530;13.390;2022-07-23T13:53:18;4.72;;;2.90;;
19727;SDS011;10015;52.530;13.390;2022-07-23T13:55:47;4.50;;;2.50;;
19727;SDS011;10015;52.530;13.390;2022-07-23T13:58:14;3.95;;;2.50;;
19727;SDS011;10015;52.530;13.390;2022-07-23T14:00:42;4.90;;;2.60;;
19727;SDS011;10015;52.530;13.390;2022-07-23T14:03:11;5.40;;;2.85;;
19727;SDS011;10015;52.530;13.390;2022-07-23T14:05:37;5.63;;;2.90;;
19727;SDS011;10015;52.530;13.390;2022-07-23T14:08:03;4.32;;;2.63;;
19727;SDS011;10015;52.530;13.390;2022-07-23T14:10:29;7.28;;;2.95;;
19727;SDS011;10015;52.530;13.390;2022-07-23T14:12:56;3.30;;;2.35;;
19727;SDS011;10015;52.530;13.390;2022-07-23T14:15:23;4.28;;;2.53;;
19727;SDS011;10015;52.530;13.390;2022-07-23T14:17:52;4.63;;;2.53;;
19727;SDS011;10015;52.530;13.390;2022-07-23T14:20:18;4.90;;;2.53;;
19727;SDS011;10015;52.530;13.390;2022-07-23T14:22:44;5.40;;;2.38;;
19727;SDS011;10015;52.530;13.390;2022-07-23T14:25:11;2.97;;;2.13;;
19727;SDS011;10015;52.530;13.390;2022-07-23T14:27:37;2.45;;;2.20;;
19727;SDS011;10015;52.530;13.390;2022-07-23T14:30:05;4.03;;;2.33;;
19727;SDS011;10015;52.530;13.390;2022-07-23T14:32:31;3.05;;;2.28;;
19727;SDS011;10015;52.530;13.390;2022-07-23T14:34:57;2.92;;;2.47;;
19727;SDS011;10015;52.530;13.390;2022-07-23T14:37:23;3.22;;;2.17;;
19727;SDS011;10015;52.530;13.390;2022-07-23T14:39:50;2.90;;;2.30;;
19727;SDS011;10015;52.530;13.390;2022-07-23T14:42:16;2.65;;;2.10;;
19727;SDS011;10015;52.530;13.390;2022-07-23T14:44:42;3.35;;;2.20;;
19727;SDS011;10015;52.530;13.390;2022-07-23T14:47:09;4.10;;;1.88;;
19727;SDS011;10015;52.530;13.390;2022-07-23T14:49:35;3.47;;;2.20;;
19727;SDS011;10015;52.530;13.390;2022-07-23T14:52:02;3.17;;;2.22;;
19727;SDS011;10015;52.530;13.390;2022-07-23T14:54:29;3.33;;;1.90;;
19727;SDS011;10015;52.530;13.390;2022-07-23T14:56:56;4.15;;;2.20;;
19727;SDS011;10015;52.530;13.390;2022-07-23T14:59:23;3.83;;;1.90;;
19727;SDS011;10015;52.530;13.390;2022-07-23T15:01:50;4.07;;;1.65;;
19727;SDS011;10015;52.530;13.390;2022-07-23T15:04:16;2.75;;;2.13;;
19727;SDS011;10015;52.530;13.390;2022-07-23T15:06:42;2.22;;;1.65;;
19727;SDS011;10015;52.530;13.390;2022-07-23T15:09:08;2.08;;;1.77;;
19727;SDS011;10015;52.530;13.390;2022-07-23T15:11:34;3.83;;;1.90;;
19727;SDS011;10015;52.530;13.390;2022-07-23T15:14:02;3.25;;;2.00;;
19727;SDS011;10015;52.530;13.390;2022-07-23T15:16:32;1.83;;;1.52;;
19727;SDS011;10015;52.530;13.390;2022-07-23T15:18:58;4.30;;;1.92;;
19727;SDS011;10015;52.530;13.390;2022-07-23T15:21:24;2.15;;;1.70;;
19727;SDS011;10015;52.530;13.390;2022-07-23T15:23:50;2.40;;;1.40;;
19727;SDS011;10015;52.530;13.390;2022-07-23T15:26:17;2.35;;;1.70;;
19727;SDS011;10015;52.530;13.390;2022-07-23T15:28:44;1.95;;;1.30;;
19727;SDS011;10015;52.530;13.390;2022-07-23T15:31:10;3.15;;;1.70;;
19727;SDS011;10015;52.530;13.390;2022-07-23T15:33:36;3.88;;;1.50;;
19727;SDS011;10015;52.530;13.390;2022-07-23T15:36:02;6.32;;;1.60;;
19727;SDS011;10015;52.530;13.390;2022-07-23T15:38:29;3.17;;;1.55;;
19727;SDS011;10015;52.530;13.390;2022-07-23T15:40:55;1.77;;;1.63;;
19727;SDS011;10015;52.530;13.390;2022-07-23T15:43:25;3.13;;;1.80;;
19727;SDS011;10015;52.530;13.390;2022-07-23T15:45:52;2.35;;;1.70;;
19727;SDS011;10015;52.530;13.390;2022-07-23T15:48:19;2.15;;;1.45;;
19727;SDS011;10015;52.530;13.390;2022-07-23T15:50:45;3.30;;;2.25;;
19727;SDS011;10015;52.530;13.390;2022-07-23T15:53:12;2.92;;;1.88;;
19727;SDS011;10015;52.530;13.390;2022-07-23T15:55:38;1.77;;;1.40;;
19727;SDS011;10015;52.530;13.390;2022-07-23T15:58:05;2.72;;;1.30;;
19727;SDS011;10015;52.530;13.390;2022-07-23T16:00:31;3.53;;;1.55;;
19727;SDS011;10015;52.530;13.390;2022-07-23T16:02:58;1.60;;;1.40;;
19727;SDS011;10015;52.530;13.390;2022-07-23T16:05:24;1.40;;;1.30;;
19727;SDS011;10015;52.530;13.390;2022-07-23T16:07:57;3.85;;;1.40;;
19727;SDS011;10015;52.530;13.390;2022-07-23T16:10:23;1.67;;;1.30;;
19727;SDS011;10015;52.530;13.390;2022-07-23T16:12:49;2.25;;;1.30;;
19727;SDS011;10015;52.530;13.390;2022-07-23T16:15:15;2.70;;;1.40;;
19727;SDS011;10015;52.530;13.390;2022-07-23T16:17:41;2.28;;;1.35;;
19727;SDS011;10015;52.530;13.390;2022-07-23T16:20:07;4.70;;;1.52;;
19727;SDS011;10015;52.530;13.390;2022-07-23T16:22:34;2.40;;;1.30;;
19727;SDS011;10015;52.530;13.390;2022-07-23T16:25:00;2.13;;;1.42;;
19727;SDS011;10015;52.530;13.390;2022-07-23T16:27:28;2.80;;;1.35;;
19727;SDS011;10015;52.530;13.390;2022-07-23T16:29:56;1.48;;;1.15;;
19727;SDS011;10015;52.530;13.390;2022-07-23T16:32:22;5.63;;;1.50;;
19727;SDS011;10015;52.530;13.390;2022-07-23T16:34:48;3.40;;;1.50;;
19727;SDS011;10015;52.530;13.390;2022-07-23T16:37:14;2.85;;;1.17;;
19727;SDS011;10015;52.530;13.390;2022-07-23T16:39:39;2.05;;;1.30;;
19727;SDS011;10015;52.530;13.390;2022-07-23T16:42:05;3.30;;;1.60;;
19727;SDS011;10015;52.530;13.390;2022-07-23T16:44:31;1.60;;;1.50;;
19727;SDS011;10015;52.530;13.390;2022-07-23T16:46:57;2.70;;;1.35;;
19727;SDS011;10015;52.530;13.390;2022-07-23T16:49:23;3.00;;;1.35;;
19727;SDS011;10015;52.530;13.390;2022-07-23T16:51:49;1.60;;;1.50;;
19727;SDS011;10015;52.530;13.390;2022-07-23T16:54:15;2.92;;;1.45;;
19727;SDS011;10015;52.530;13.390;2022-07-23T16:56:42;2.63;;;1.55;;
19727;SDS011;10015;52.530;13.390;2022-07-23T16:59:08;2.20;;;1.50;;
19727;SDS011;10015;52.530;13.390;2022-07-23T17:01:34;2.10;;;1.60;;
19727;SDS011;10015;52.530;13.390;2022-07-23T17:04:00;5.05;;;1.40;;
19727;SDS011;10015;52.530;13.390;2022-07-23T17:06:26;2.83;;;1.58;;
19727;SDS011;10015;52.530;13.390;2022-07-23T17:08:52;2.45;;;1.60;;
19727;SDS011;10015;52.530;13.390;2022-07-23T17:11:18;1.80;;;1.33;;
19727;SDS011;10015;52.530;13.390;2022-07-23T17:13:44;2.03;;;1.20;;
19727;SDS011;10015;52.530;13.390;2022-07-23T17:16:10;3.10;;;1.50;;
19727;SDS011;10015;52.530;13.390;2022-07-23T17:18:36;2.00;;;1.50;;
19727;SDS011;10015;52.530;13.390;2022-07-23T17:21:03;1.17;;;1.00;;
19727;SDS011;10015;52.530;13.390;2022-07-23T17:23:29;3.03;;;1.20;;
19727;SDS011;10015;52.530;13.390;2022-07-23T17:25:54;2.45;;;1.50;;
19727;SDS011;10015;52.530;13.390;2022-07-23T17:28:20;3.47;;;1.48;;
19727;SDS011;10015;52.530;13.390;2022-07-23T17:30:46;3.08;;;1.25;;
19727;SDS011;10015;52.530;13.390;2022-07-23T17:33:12;4.57;;;1.40;;
19727;SDS011;10015;52.530;13.390;2022-07-23T17:35:39;3.30;;;1.30;;
19727;SDS011;10015;52.530;13.390;2022-07-23T17:38:05;1.98;;;1.30;;
19727;SDS011;10015;52.530;13.390;2022-07-23T17:40:31;2.05;;;1.23;;
19727;SDS011;10015;52.530;13.390;2022-07-23T17:42:57;1.80;;;1.10;;
19727;SDS011;10015;52.530;13.390;2022-07-23T17:45:24;3.28;;;1.58;;
19727;SDS011;10015;52.530;13.390;2022-07-23T17:47:50;2.75;;;1.50;;
19727;SDS011;10015;52.530;13.390;2022-07-23T17:50:16;1.77;;;1.17;;
19727;SDS011;10015;52.530;13.390;2022-07-23T17:52:43;8.18;;;1.63;;
19727;SDS011;10015;52.530;13.390;2022-07-23T17:55:11;1.48;;;1.30;;
19727;SDS011;10015;52.530;13.390;2022-07-23T17:57:37;2.35;;;1.20;;
19727;SDS011;10015;52.530;13.390;2022-07-23T18:00:05;2.13;;;1.20;;
19727;SDS011;10015;52.530;13.390;2022-07-23T18:02:33;3.35;;;1.30;;
19727;SDS011;10015;52.530;13.390;2022-07-23T18:04:59;3.75;;;1.60;;
19727;SDS011;10015;52.530;13.390;2022-07-23T18:07:29;2.58;;;1.25;;
19727;SDS011;10015;52.530;13.390;2022-07-23T18:09:55;1.92;;;1.27;;
19727;SDS011;10015;52.530;13.390;2022-07-23T18:12:21;2.63;;;1.40;;
19727;SDS011;10015;52.530;13.390;2022-07-23T18:14:47;2.00;;;1.30;;
19727;SDS011;10015;52.530;13.390;2022-07-23T18:17:14;2.15;;;1.27;;
19727;SDS011;10015;52.530;13.390;2022-07-23T18:19:41;1.63;;;1.27;;
19727;SDS011;10015;52.530;13.390;2022-07-23T18:22:07;1.50;;;1.10;;
19727;SDS011;10015;52.530;13.390;2022-07-23T18:24:34;1.30;;;1.10;;
19727;SDS011;10015;52.530;13.390;2022-07-23T18:26:59;1.65;;;1.00;;
19727;SDS011;10015;52.530;13.390;2022-07-23T18:29:25;2.30;;;1.27;;
19727;SDS011;10015;52.530;13.390;2022-07-23T18:31:51;1.85;;;1.33;;
19727;SDS011;10015;52.530;13.390;2022-07-23T18:34:17;1.10;;;1.00;;
19727;SDS011;10015;52.530;13.390;2022-07-23T18:36:43;1.00;;;0.90;;
19727;SDS011;10015;52.530;13.390;2022-07-23T18:39:09;3.90;;;1.30;;
19727;SDS011;10015;52.530;13.390;2022-07-23T18:41:35;1.63;;;1.00;;
19727;SDS011;10015;52.530;13.390;2022-07-23T18:44:01;2.00;;;1.00;;
19727;SDS011;10015;52.530;13.390;2022-07-23T18:46:27;2.20;;;1.10;;
19727;SDS011;10015;52.530;13.390;2022-07-23T18:48:53;0.80;;;0.75;;
19727;SDS011;10015;52.530;13.390;2022-07-23T18:51:19;1.25;;;1.10;;
19727;SDS011;10015;52.530;13.390;2022-07-23T18:53:45;1.02;;;0.85;;
19727;SDS011;10015;52.530;13.390;2022-07-23T18:56:12;2.15;;;1.00;;
19727;SDS011;10015;52.530;13.390;2022-07-23T18:58:38;2.03;;;1.00;;
19727;SDS011;10015;52.530;13.390;2022-07-23T19:01:04;2.13;;;0.80;;
19727;SDS011;10015;52.530;13.390;2022-07-23T19:03:32;1.65;;;1.00;;
19727;SDS011;10015;52.530;13.390;2022-07-23T19:05:59;1.55;;;1.17;;
19727;SDS011;10015;52.530;13.390;2022-07-23T19:08:25;2.25;;;1.17;;
19727;SDS011;10015;52.530;13.390;2022-07-23T19:10:51;1.60;;;1.10;;
19727;SDS011;10015;52.530;13.390;2022-07-23T19:13:17;1.48;;;1.20;;
19727;SDS011;10015;52.530;13.390;2022-07-23T19:15:43;3.78;;;1.15;;
19727;SDS011;10015;52.530;13.390;2022-07-23T19:18:11;1.25;;;1.10;;
19727;SDS011;10015;52.530;13.390;2022-07-23T19:20:38;1.15;;;0.90;;
19727;SDS011;10015;52.530;13.390;2022-07-23T19:23:04;1.55;;;1.00;;
19727;SDS011;10015;52.530;13.390;2022-07-23T19:25:30;1.40;;;1.13;;
19727;SDS011;10015;52.530;13.390;2022-07-23T19:27:57;1.88;;;1.17;;
19727;SDS011;10015;52.530;13.390;2022-07-23T19:30:23;2.10;;;1.30;;
19727;SDS011;10015;52.530;13.390;2022-07-23T19:32:49;2.28;;;1.20;;
19727;SDS011;10015;52.530;13.390;2022-07-23T19:35:16;3.83;;;1.10;;
19727;SDS011;10015;52.530;13.390;2022-07-23T19:37:42;1.23;;;1.13;;
19727;SDS011;10015;52.530;13.390;2022-07-23T19:40:08;1.95;;;1.08;;
19727;SDS011;10015;52.530;13.390;2022-07-23T19:42:35;1.27;;;0.80;;
19727;SDS011;10015;52.530;13.390;2022-07-23T19:45:02;1.80;;;1.13;;
19727;SDS011;10015;52.530;13.390;2022-07-23T19:47:29;1.10;;;0.85;;
19727;SDS011;10015;52.530;13.390;2022-07-23T19:49:55;1.58;;;0.80;;
19727;SDS011;10015;52.530;13.390;2022-07-23T19:52:21;0.63;;;0.63;;
19727;SDS011;10015;52.530;13.390;2022-07-23T19:54:47;1.02;;;0.90;;
19727;SDS011;10015;52.530;13.390;2022-07-23T19:57:13;1.00;;;0.82;;
19727;SDS011;10015;52.530;13.390;2022-07-23T19:59:39;1.30;;;0.85;;
19727;SDS011;10015;52.530;13.390;2022-07-23T20:02:05;1.25;;;0.82;;
19727;SDS011;10015;52.530;13.390;2022-07-23T20:04:31;1.60;;;0.82;;
19727;SDS011;10015;52.530;13.390;2022-07-23T20:06:57;0.68;;;0.65;;
19727;SDS011;10015;52.530;13.390;2022-07-23T20:09:23;1.23;;;0.80;;
19727;SDS011;10015;52.530;13.390;2022-07-23T20:11:49;1.50;;;0.90;;
19727;SDS011;10015;52.530;13.390;2022-07-23T20:14:16;1.95;;;1.05;;
19727;SDS011;10015;52.530;13.390;2022-07-23T20:16:42;1.65;;;1.05;;
19727;SDS011;10015;52.530;13.390;2022-07-23T20:19:08;2.47;;;1.52;;
19727;SDS011;10015;52.530;13.390;2022-07-23T20:21:34;2.38;;;1.00;;
19727;SDS011;10015;52.530;13.390;2022-07-23T20:24:00;1.33;;;0.90;;
19727;SDS011;10015;52.530;13.390;2022-07-23T20:26:30;1.10;;;1.00;;
19727;SDS011;10015;52.530;13.390;2022-07-23T20:28:55;2.05;;;1.10;;
19727;SDS011;10015;52.530;13.390;2022-07-23T20:31:21;1.92;;;1.00;;
19727;SDS011;10015;52.530;13.390;2022-07-23T20:33:47;2.20;;;1.00;;
19727;SDS011;10015;52.530;13.390;2022-07-23T20:36:13;1.65;;;1.00;;
19727;SDS011;10015;52.530;13.390;2022-07-23T20:38:39;1.40;;;1.00;;
19727;SDS011;10015;52.530;13.390;2022-07-23T20:41:05;1.50;;;1.00;;
19727;SDS011;10015;52.530;13.390;2022-07-23T20:43:31;2.45;;;0.95;;
19727;SDS011;10015;52.530;13.390;2022-07-23T20:45:57;1.58;;;1.10;;
19727;SDS011;10015;52.530;13.390;2022-07-23T20:48:22;2.67;;;1.20;;
19727;SDS011;10015;52.530;13.390;2022-07-23T20:50:48;3.25;;;1.00;;
19727;SDS011;10015;52.530;13.390;2022-07-23T20:53:14;1.67;;;1.15;;
19727;SDS011;10015;52.530;13.390;2022-07-23T20:55:41;2.13;;;1.30;;
19727;SDS011;10015;52.530;13.390;2022-07-23T20:58:08;2.05;;;0.90;;
19727;SDS011;10015;52.530;13.390;2022-07-23T21:00:34;1.65;;;0.90;;
19727;SDS011;10015;52.530;13.390;2022-07-23T21:03:00;2.88;;;0.95;;